Barstow Daggett Airport Daggett US
ICAO: KDAG
IATA: DAG
Category: Medium
Scheduled Services: No

Elevation: 1930 ft
TransAlt. 18000 ft.

Airport Communications:
ASOS:132.175
LOS ANGELES CNTR:132.5
HAWK 86:46.7
RIVERSIDE RDO:122.2
CTAF/UNICOM:123

KDAG Zoom In..

Runways:

(A) RW 04 length 5123 ft width 100 ft
---- / hdg 35

(B) RW 08 length 6402 ft width 150 ft
---- / hdg 74

(C) RW 22 length 5123 ft width 100 ft
---- / hdg 215

(D) RW 26 length 6402 ft width 150 ft
---- / hdg 254

Location; KDAG
Day. 17 / Time. 06.50 Zulu
* Altimeter: 29.93
* Temperature: 33° c. 91.4°f.
* Wind from: 270° Speed 14 kn.
Dewpoint: 11° c.
Visibility: 10 Statute Miles.
Clouds: Clear (automated report).

KDAG 170650Z AUTO 27014KT 10SM CLR 33/11 A2993 RMK AO2 SLP099 T03330111


Wind From 270°
Speed 14 kn.

 
 
jpsmedia.com for Web Design worldairports.se 2018   terms of use